Time,TemperatureF,DewpointF,PressureIn,WindDirection,WindDirectionDegrees,WindSpeedMPH,WindSpeedGustMPH,Humidity,HourlyPrecipIn,Conditions,Clouds,dailyrainin,SoftwareType,DateUTC
2013-03-29 00:00:00,39.9,25.9,30.32,ESE,119,0.0,6.0,57,0.00,,,0.00,Wunderground v.1.13,2013-03-29 04:00:00,
2013-03-29 00:05:00,39.6,25.6,30.32,ESE,119,0.0,6.0,57,0.00,,,0.00,Wunderground v.1.13,2013-03-29 04:05:00,
2013-03-29 00:10:00,39.5,25.9,30.32,ESE,119,0.0,6.0,58,0.00,,,0.00,Wunderground v.1.13,2013-03-29 04:10:00,
2013-03-29 00:15:00,39.3,27.0,30.32,ESE,119,0.0,6.0,61,0.00,,,0.00,Wunderground v.1.13,2013-03-29 04:15:00,
2013-03-29 00:20:00,39.3,27.7,30.32,ESE,119,0.0,6.0,63,0.00,,,0.00,Wunderground v.1.13,2013-03-29 04:20:00,
2013-03-29 00:30:00,38.9,26.2,30.33,ESE,119,0.0,6.0,60,0.00,,,0.00,Wunderground v.1.13,2013-03-29 04:30:00,
2013-03-29 00:35:00,38.6,25.9,30.33,ESE,119,0.0,6.0,60,0.00,,,0.00,Wunderground v.1.13,2013-03-29 04:35:00,
2013-03-29 00:40:00,38.3,25.6,30.33,ESE,119,0.0,6.0,60,0.00,,,0.00,Wunderground v.1.13,2013-03-29 04:40:00,
2013-03-29 00:45:00,38.2,25.9,30.33,ESE,119,0.0,6.0,61,0.00,,,0.00,Wunderground v.1.13,2013-03-29 04:45:00,
2013-03-29 00:50:00,38.0,26.1,30.33,ESE,119,0.0,6.0,62,0.00,,,0.00,Wunderground v.1.13,2013-03-29 04:50:00,
2013-03-29 00:55:00,38.0,26.9,30.33,ESE,119,0.0,6.0,64,0.00,,,0.00,Wunderground v.1.13,2013-03-29 04:55:00,
2013-03-29 01:05:00,37.8,27.1,30.33,ESE,120,0.0,6.0,65,0.00,,,0.00,Wunderground v.1.13,2013-03-29 05:05:00,
2013-03-29 01:10:00,37.5,27.2,30.33,ESE,119,0.0,6.0,66,0.00,,,0.00,Wunderground v.1.13,2013-03-29 05:10:00,
2013-03-29 01:15:00,37.3,27.0,30.32,ESE,119,0.0,6.0,66,0.00,,,0.00,Wunderground v.1.13,2013-03-29 05:15:00,
2013-03-29 01:25:00,36.8,26.1,30.32,ESE,119,0.0,6.0,65,0.00,,,0.00,Wunderground v.1.13,2013-03-29 05:25:00,
2013-03-29 01:35:00,36.5,25.8,30.32,ESE,119,0.0,6.0,65,0.00,,,0.00,Wunderground v.1.13,2013-03-29 05:35:00,
2013-03-29 01:40:00,36.3,25.7,30.32,ESE,119,0.0,6.0,65,0.00,,,0.00,Wunderground v.1.13,2013-03-29 05:40:00,
2013-03-29 01:45:00,36.0,25.4,30.33,ESE,119,0.0,6.0,65,0.00,,,0.00,Wunderground v.1.13,2013-03-29 05:45:00,
2013-03-29 01:50:00,35.9,25.3,30.33,ESE,119,0.0,6.0,65,0.00,,,0.00,Wunderground v.1.13,2013-03-29 05:50:00,
2013-03-29 01:55:00,35.8,25.5,30.33,ESE,119,0.0,6.0,66,0.00,,,0.00,Wunderground v.1.13,2013-03-29 05:55:00,
2013-03-29 02:00:00,35.6,25.4,30.33,ESE,119,0.0,6.0,66,0.00,,,0.00,Wunderground v.1.13,2013-03-29 06:00:00,
2013-03-29 02:05:00,35.5,25.3,30.33,ESE,119,0.0,6.0,66,0.00,,,0.00,Wunderground v.1.13,2013-03-29 06:05:00,
2013-03-29 02:10:00,35.5,25.3,30.33,ESE,119,0.0,6.0,66,0.00,,,0.00,Wunderground v.1.13,2013-03-29 06:10:00,
2013-03-29 02:15:00,35.5,25.6,30.32,ESE,119,0.0,6.0,67,0.00,,,0.00,Wunderground v.1.13,2013-03-29 06:15:00,
2013-03-29 02:20:00,35.3,25.4,30.32,ESE,119,0.0,6.0,67,0.00,,,0.00,Wunderground v.1.13,2013-03-29 06:20:00,
2013-03-29 02:25:00,35.3,25.4,30.32,ESE,119,0.0,6.0,67,0.00,,,0.00,Wunderground v.1.13,2013-03-29 06:25:00,
2013-03-29 02:30:00,35.2,25.7,30.33,ESE,117,0.0,6.0,68,0.00,,,0.00,Wunderground v.1.13,2013-03-29 06:30:00,
2013-03-29 02:40:00,34.9,25.8,30.33,ESE,119,0.0,6.0,69,0.00,,,0.00,Wunderground v.1.13,2013-03-29 06:40:00,
2013-03-29 02:45:00,34.7,25.9,30.33,ESE,119,0.0,6.0,70,0.00,,,0.00,Wunderground v.1.13,2013-03-29 06:45:00,
2013-03-29 02:50:00,34.7,25.9,30.33,ESE,119,0.0,6.0,70,0.00,,,0.00,Wunderground v.1.13,2013-03-29 06:50:00,
2013-03-29 02:55:00,34.6,25.8,30.33,ESE,119,0.0,6.0,70,0.00,,,0.00,Wunderground v.1.13,2013-03-29 06:55:00,
2013-03-29 03:00:00,34.6,25.8,30.32,ESE,119,0.0,6.0,70,0.00,,,0.00,Wunderground v.1.13,2013-03-29 07:00:00,
2013-03-29 03:10:00,34.3,25.9,30.32,ESE,119,0.0,6.0,71,0.00,,,0.00,Wunderground v.1.13,2013-03-29 07:10:00,
2013-03-29 03:15:00,34.1,25.7,30.32,ESE,119,0.0,6.0,71,0.00,,,0.00,Wunderground v.1.13,2013-03-29 07:15:00,
2013-03-29 03:20:00,34.1,26.0,30.32,ESE,119,0.0,6.0,72,0.00,,,0.00,Wunderground v.1.13,2013-03-29 07:20:00,
2013-03-29 03:25:00,34.0,25.9,30.32,ESE,117,0.0,6.0,72,0.00,,,0.00,Wunderground v.1.13,2013-03-29 07:25:00,
2013-03-29 03:30:00,33.8,25.7,30.32,ESE,119,0.0,6.0,72,0.00,,,0.00,Wunderground v.1.13,2013-03-29 07:30:00,
2013-03-29 03:35:00,33.8,25.4,30.32,ESE,119,0.0,6.0,71,0.00,,,0.00,Wunderground v.1.13,2013-03-29 07:35:00,
2013-03-29 03:40:00,33.7,25.6,30.32,ESE,119,0.0,6.0,72,0.00,,,0.00,Wunderground v.1.13,2013-03-29 07:40:00,
2013-03-29 03:45:00,33.5,25.4,30.32,ESE,117,0.0,6.0,72,0.00,,,0.00,Wunderground v.1.13,2013-03-29 07:45:00,
2013-03-29 03:50:00,33.4,25.3,30.32,ESE,119,0.0,6.0,72,0.00,,,0.00,Wunderground v.1.13,2013-03-29 07:50:00,
2013-03-29 03:55:00,33.2,25.1,30.32,ESE,119,0.0,6.0,72,0.00,,,0.00,Wunderground v.1.13,2013-03-29 07:55:00,
2013-03-29 04:00:00,33.1,25.4,30.32,ESE,117,0.0,6.0,73,0.00,,,0.00,Wunderground v.1.13,2013-03-29 08:00:00,
2013-03-29 04:05:00,32.9,25.2,30.32,ESE,117,0.0,6.0,73,0.00,,,0.00,Wunderground v.1.13,2013-03-29 08:05:00,
2013-03-29 04:10:00,32.8,25.1,30.32,ESE,117,0.0,6.0,73,0.00,,,0.00,Wunderground v.1.13,2013-03-29 08:10:00,
2013-03-29 04:15:00,32.8,25.1,30.32,ESE,117,0.0,6.0,73,0.00,,,0.00,Wunderground v.1.13,2013-03-29 08:15:00,
2013-03-29 04:20:00,32.8,25.1,30.32,ESE,117,0.0,6.0,73,0.00,,,0.00,Wunderground v.1.13,2013-03-29 08:20:00,
2013-03-29 04:25:00,32.7,25.3,30.32,ESE,117,0.0,6.0,74,0.00,,,0.00,Wunderground v.1.13,2013-03-29 08:25:00,
2013-03-29 04:30:00,32.7,25.3,30.31,ESE,117,0.0,6.0,74,0.00,,,0.00,Wunderground v.1.13,2013-03-29 08:30:00,
2013-03-29 04:35:00,32.7,25.3,30.31,ESE,117,0.0,6.0,74,0.00,,,0.00,Wunderground v.1.13,2013-03-29 08:35:00,
2013-03-29 04:45:00,32.5,24.8,30.31,ESE,117,1.0,6.0,73,0.00,,,0.00,Wunderground v.1.13,2013-03-29 08:45:00,
2013-03-29 04:50:00,32.5,24.8,30.31,ESE,106,1.0,6.0,73,0.00,,,0.00,Wunderground v.1.13,2013-03-29 08:50:00,
2013-03-29 04:55:00,32.4,24.7,30.31,ESE,106,1.0,1.0,73,0.00,,,0.00,Wunderground v.1.13,2013-03-29 08:55:00,
2013-03-29 05:00:00,32.2,24.5,30.32,ESE,102,1.0,6.0,73,0.00,,,0.00,Wunderground v.1.13,2013-03-29 09:00:00,
2013-03-29 05:05:00,32.2,24.8,30.32,ESE,102,1.0,1.0,74,0.00,,,0.00,Wunderground v.1.13,2013-03-29 09:05:00,
2013-03-29 05:10:00,32.1,24.7,30.32,ESE,102,1.0,6.0,74,0.00,,,0.00,Wunderground v.1.13,2013-03-29 09:10:00,
2013-03-29 05:20:00,31.9,24.9,30.32,ESE,102,0.0,6.0,75,0.00,,,0.00,Wunderground v.1.13,2013-03-29 09:20:00,
2013-03-29 05:25:00,31.9,24.9,30.32,ESE,102,0.0,6.0,75,0.00,,,0.00,Wunderground v.1.13,2013-03-29 09:25:00,
2013-03-29 05:30:00,31.8,24.8,30.31,ESE,102,0.0,6.0,75,0.00,,,0.00,Wunderground v.1.13,2013-03-29 09:30:00,
2013-03-29 05:35:00,31.8,24.8,30.31,East,100,0.0,6.0,75,0.00,,,0.00,Wunderground v.1.13,2013-03-29 09:35:00,
2013-03-29 05:40:00,31.8,24.8,30.31,ESE,102,0.0,6.0,75,0.00,,,0.00,Wunderground v.1.13,2013-03-29 09:40:00,
2013-03-29 05:50:00,31.8,25.1,30.31,ESE,102,0.0,6.0,76,0.00,,,0.00,Wunderground v.1.13,2013-03-29 09:50:00,
2013-03-29 05:55:00,31.6,24.9,30.31,ESE,102,0.0,6.0,76,0.00,,,0.00,Wunderground v.1.13,2013-03-29 09:55:00,
2013-03-29 06:00:00,31.6,24.9,30.32,ESE,102,0.0,6.0,76,0.00,,,0.00,Wunderground v.1.13,2013-03-29 10:00:00,
2013-03-29 06:05:00,31.5,24.8,30.32,ESE,102,0.0,6.0,76,0.00,,,0.00,Wunderground v.1.13,2013-03-29 10:05:00,
2013-03-29 06:10:00,31.3,24.9,30.32,ESE,102,0.0,6.0,77,0.00,,,0.00,Wunderground v.1.13,2013-03-29 10:10:00,
2013-03-29 06:20:00,31.2,24.8,30.32,NE,56,0.0,6.0,77,0.00,,,0.00,Wunderground v.1.13,2013-03-29 10:20:00,
2013-03-29 06:25:00,31.2,24.8,30.32,ESE,102,0.0,6.0,77,0.00,,,0.00,Wunderground v.1.13,2013-03-29 10:25:00,
2013-03-29 06:30:00,31.2,24.8,30.32,ESE,102,0.0,6.0,77,0.00,,,0.00,Wunderground v.1.13,2013-03-29 10:30:00,
2013-03-29 06:35:00,31.0,24.6,30.32,ESE,102,0.0,6.0,77,0.00,,,0.00,Wunderground v.1.13,2013-03-29 10:35:00,
2013-03-29 06:40:00,31.0,24.9,30.32,ESE,102,0.0,6.0,78,0.00,,,0.00,Wunderground v.1.13,2013-03-29 10:40:00,
2013-03-29 06:45:00,31.0,24.9,30.32,ESE,102,0.0,6.0,78,0.00,,,0.00,Wunderground v.1.13,2013-03-29 10:45:00,
2013-03-29 06:55:00,30.9,25.2,30.32,ESE,102,0.0,6.0,79,0.00,,,0.00,Wunderground v.1.13,2013-03-29 10:55:00,
2013-03-29 07:00:00,30.9,25.2,30.32,ESE,102,0.0,6.0,79,0.00,,,0.00,Wunderground v.1.13,2013-03-29 11:00:00,
2013-03-29 07:05:00,30.9,25.2,30.32,ESE,102,0.0,6.0,79,0.00,,,0.00,Wunderground v.1.13,2013-03-29 11:05:00,
2013-03-29 07:10:00,31.0,25.2,30.32,ESE,102,0.0,6.0,79,0.00,,,0.00,Wunderground v.1.13,2013-03-29 11:10:00,
2013-03-29 07:15:00,30.9,25.2,30.32,ESE,102,0.0,6.0,79,0.00,,,0.00,Wunderground v.1.13,2013-03-29 11:15:00,
2013-03-29 07:20:00,30.9,25.2,30.32,ESE,102,0.0,6.0,79,0.00,,,0.00,Wunderground v.1.13,2013-03-29 11:20:00,
2013-03-29 07:25:00,30.7,25.0,30.32,ESE,102,0.0,6.0,79,0.00,,,0.00,Wunderground v.1.13,2013-03-29 11:25:00,
2013-03-29 07:30:00,30.7,25.0,30.33,ESE,102,0.0,6.0,79,0.00,,,0.00,Wunderground v.1.13,2013-03-29 11:30:00,
2013-03-29 07:35:00,30.7,25.0,30.33,ESE,102,0.0,6.0,79,0.00,,,0.00,Wunderground v.1.13,2013-03-29 11:35:00,
2013-03-29 07:40:00,31.0,25.9,30.33,ESE,103,0.0,6.0,81,0.00,,,0.00,Wunderground v.1.13,2013-03-29 11:40:00,
2013-03-29 07:45:00,31.3,26.4,30.33,ESE,103,0.0,6.0,82,0.00,,,0.00,Wunderground v.1.13,2013-03-29 11:45:00,
2013-03-29 07:55:00,31.6,27.0,30.33,SSE,161,0.0,6.0,83,0.00,,,0.00,Wunderground v.1.13,2013-03-29 11:55:00,
2013-03-29 08:00:00,31.8,27.2,30.33,SSE,161,0.0,6.0,83,0.00,,,0.00,Wunderground v.1.13,2013-03-29 12:00:00,
2013-03-29 08:05:00,31.9,27.3,30.33,SSE,161,0.0,6.0,83,0.00,,,0.00,Wunderground v.1.13,2013-03-29 12:05:00,
2013-03-29 08:10:00,32.1,27.5,30.33,SSE,161,0.0,6.0,83,0.00,,,0.00,Wunderground v.1.13,2013-03-29 12:10:00,
2013-03-29 08:15:00,32.1,27.5,30.33,SSE,161,0.0,6.0,83,0.00,,,0.00,Wunderground v.1.13,2013-03-29 12:15:00,
2013-03-29 08:20:00,32.2,27.6,30.33,SSE,161,0.0,6.0,83,0.00,,,0.00,Wunderground v.1.13,2013-03-29 12:20:00,
2013-03-29 08:30:00,32.4,27.8,30.34,SSE,161,0.0,6.0,83,0.00,,,0.00,Wunderground v.1.13,2013-03-29 12:30:00,
2013-03-29 08:35:00,32.5,27.6,30.34,SSE,161,0.0,6.0,82,0.00,,,0.00,Wunderground v.1.13,2013-03-29 12:35:00,
2013-03-29 08:40:00,32.7,27.5,30.34,SSE,161,0.0,6.0,81,0.00,,,0.00,Wunderground v.1.13,2013-03-29 12:40:00,
2013-03-29 08:45:00,32.8,27.6,30.33,SSE,161,0.0,6.0,81,0.00,,,0.00,Wunderground v.1.13,2013-03-29 12:45:00,
2013-03-29 08:50:00,33.1,27.6,30.33,SSE,161,0.0,6.0,80,0.00,,,0.00,Wunderground v.1.13,2013-03-29 12:50:00,
2013-03-29 09:00:00,33.8,28.3,30.34,South,171,0.0,6.0,80,0.00,,,0.00,Wunderground v.1.13,2013-03-29 13:00:00,
2013-03-29 09:05:00,34.4,29.2,30.34,South,171,0.0,6.0,81,0.00,,,0.00,Wunderground v.1.13,2013-03-29 13:05:00,
2013-03-29 09:10:00,34.9,29.4,30.34,South,171,0.0,6.0,80,0.00,,,0.00,Wunderground v.1.13,2013-03-29 13:10:00,
2013-03-29 09:15:00,35.5,29.6,30.34,South,171,0.0,6.0,79,0.00,,,0.00,Wunderground v.1.13,2013-03-29 13:15:00,
2013-03-29 09:20:00,35.8,29.6,30.34,South,171,0.0,6.0,78,0.00,,,0.00,Wunderground v.1.13,2013-03-29 13:20:00,
2013-03-29 09:25:00,36.0,29.2,30.34,South,171,0.0,6.0,76,0.00,,,0.00,Wunderground v.1.13,2013-03-29 13:25:00,
2013-03-29 09:35:00,36.6,28.8,30.34,South,169,0.0,6.0,73,0.00,,,0.00,Wunderground v.1.13,2013-03-29 13:35:00,
2013-03-29 09:40:00,36.9,28.7,30.34,South,171,0.0,6.0,72,0.00,,,0.00,Wunderground v.1.13,2013-03-29 13:40:00,
2013-03-29 09:45:00,37.3,29.1,30.35,South,169,0.0,6.0,72,0.00,,,0.00,Wunderground v.1.13,2013-03-29 13:45:00,
2013-03-29 09:50:00,37.8,29.2,30.35,South,171,0.0,6.0,71,0.00,,,0.00,Wunderground v.1.13,2013-03-29 13:50:00,
2013-03-29 09:55:00,38.3,29.4,30.35,South,169,0.0,6.0,70,0.00,,,0.00,Wunderground v.1.13,2013-03-29 13:55:00,
2013-03-29 10:00:00,38.8,29.5,30.35,South,171,0.0,6.0,69,0.00,,,0.00,Wunderground v.1.13,2013-03-29 14:00:00,
2013-03-29 10:05:00,39.2,29.5,30.35,South,171,0.0,6.0,68,0.00,,,0.00,Wunderground v.1.13,2013-03-29 14:05:00,
2013-03-29 10:10:00,39.6,29.2,30.35,South,169,0.0,6.0,66,0.00,,,0.00,Wunderground v.1.13,2013-03-29 14:10:00,
2013-03-29 10:15:00,40.2,29.4,30.35,South,171,0.0,6.0,65,0.00,,,0.00,Wunderground v.1.13,2013-03-29 14:15:00,
2013-03-29 10:20:00,40.6,29.7,30.35,South,171,0.0,6.0,65,0.00,,,0.00,Wunderground v.1.13,2013-03-29 14:20:00,
2013-03-29 10:25:00,41.2,29.5,30.35,South,169,0.0,6.0,63,0.00,,,0.00,Wunderground v.1.13,2013-03-29 14:25:00,
2013-03-29 10:35:00,42.3,30.6,30.34,South,169,0.0,6.0,63,0.00,,,0.00,Wunderground v.1.13,2013-03-29 14:35:00,
2013-03-29 10:40:00,42.8,30.3,30.34,South,171,0.0,6.0,61,0.00,,,0.00,Wunderground v.1.13,2013-03-29 14:40:00,
2013-03-29 10:45:00,43.3,30.3,30.34,South,169,0.0,6.0,60,0.00,,,0.00,Wunderground v.1.13,2013-03-29 14:45:00,
2013-03-29 10:50:00,44.1,31.1,30.34,South,169,0.0,6.0,60,0.00,,,0.00,Wunderground v.1.13,2013-03-29 14:50:00,
2013-03-29 10:55:00,44.8,31.3,30.34,South,171,0.0,6.0,59,0.00,,,0.00,Wunderground v.1.13,2013-03-29 14:55:00,
2013-03-29 11:00:00,45.5,31.6,30.33,South,171,0.0,6.0,58,0.00,,,0.00,Wunderground v.1.13,2013-03-29 15:00:00,
2013-03-29 11:10:00,46.5,29.3,30.33,South,171,0.0,6.0,51,0.00,,,0.00,Wunderground v.1.13,2013-03-29 15:10:00,
2013-03-29 11:15:00,47.0,28.8,30.34,South,171,0.0,6.0,49,0.00,,,0.00,Wunderground v.1.13,2013-03-29 15:15:00,
2013-03-29 11:20:00,47.6,28.3,30.34,South,171,0.0,6.0,47,0.00,,,0.00,Wunderground v.1.13,2013-03-29 15:20:00,
2013-03-29 11:25:00,48.0,28.7,30.34,South,171,0.0,6.0,47,0.00,,,0.00,Wunderground v.1.13,2013-03-29 15:25:00,
2013-03-29 11:30:00,48.6,27.1,30.33,South,171,0.0,6.0,43,0.00,,,0.00,Wunderground v.1.13,2013-03-29 15:30:00,
2013-03-29 11:40:00,49.4,26.7,30.33,South,171,0.0,6.0,41,0.00,,,0.00,Wunderground v.1.13,2013-03-29 15:40:00,
2013-03-29 11:45:00,49.8,28.2,30.33,South,171,0.0,6.0,43,0.00,,,0.00,Wunderground v.1.13,2013-03-29 15:45:00,
2013-03-29 11:50:00,50.2,26.2,30.33,South,174,0.0,6.0,39,0.00,,,0.00,Wunderground v.1.13,2013-03-29 15:50:00,
2013-03-29 11:55:00,50.5,26.4,30.33,SE,141,0.0,6.0,39,0.00,,,0.00,Wunderground v.1.13,2013-03-29 15:55:00,
2013-03-29 12:00:00,51.0,25.6,30.32,SE,134,0.0,6.0,37,0.00,,,0.00,Wunderground v.1.13,2013-03-29 16:00:00,
2013-03-29 12:05:00,51.6,25.5,30.32,SSE,160,0.0,6.0,36,0.00,,,0.00,Wunderground v.1.13,2013-03-29 16:05:00,
2013-03-29 12:15:00,52.2,24.6,30.32,SE,138,1.0,6.0,34,0.00,,,0.00,Wunderground v.1.13,2013-03-29 16:15:00,
2013-03-29 12:20:00,52.6,25.7,30.32,SSE,152,0.0,6.0,35,0.00,,,0.00,Wunderground v.1.13,2013-03-29 16:20:00,
2013-03-29 12:25:00,52.9,23.8,30.32,South,182,0.0,6.0,32,0.00,,,0.00,Wunderground v.1.13,2013-03-29 16:25:00,
2013-03-29 12:30:00,53.2,24.1,30.31,South,182,0.0,6.0,32,0.00,,,0.00,Wunderground v.1.13,2013-03-29 16:30:00,
2013-03-29 12:35:00,53.5,24.3,30.31,SE,141,0.0,6.0,32,0.00,,,0.00,Wunderground v.1.13,2013-03-29 16:35:00,
2013-03-29 12:40:00,53.5,24.3,30.31,SSW,192,0.0,6.0,32,0.00,,,0.00,Wunderground v.1.13,2013-03-29 16:40:00,
2013-03-29 12:45:00,53.6,24.4,30.30,SE,124,0.0,6.0,32,0.00,,,0.00,Wunderground v.1.13,2013-03-29 16:45:00,
2013-03-29 12:50:00,53.9,23.9,30.30,SE,124,0.0,6.0,31,0.00,,,0.00,Wunderground v.1.13,2013-03-29 16:50:00,
2013-03-29 12:55:00,54.5,25.2,30.30,SE,138,0.0,6.0,32,0.00,,,0.00,Wunderground v.1.13,2013-03-29 16:55:00,
2013-03-29 13:00:00,55.9,26.4,30.30,SE,138,0.0,6.0,32,0.00,,,0.00,Wunderground v.1.13,2013-03-29 17:00:00,
2013-03-29 13:05:00,57.0,26.6,30.30,SSE,154,0.0,6.0,31,0.00,,,0.00,Wunderground v.1.13,2013-03-29 17:05:00,
2013-03-29 13:15:00,58.4,25.4,30.29,SSE,164,0.0,6.0,28,0.00,,,0.00,Wunderground v.1.13,2013-03-29 17:15:00,
2013-03-29 13:20:00,59.0,25.9,30.29,South,175,0.0,6.0,28,0.00,,,0.00,Wunderground v.1.13,2013-03-29 17:20:00,
2013-03-29 13:25:00,59.9,26.7,30.29,SSE,150,0.0,6.0,28,0.00,,,0.00,Wunderground v.1.13,2013-03-29 17:25:00,
2013-03-29 13:30:00,60.2,26.9,30.28,SSE,162,0.0,6.0,28,0.00,,,0.00,Wunderground v.1.13,2013-03-29 17:30:00,
2013-03-29 13:35:00,60.9,25.7,30.28,SSW,210,0.0,6.0,26,0.00,,,0.00,Wunderground v.1.13,2013-03-29 17:35:00,
2013-03-29 13:40:00,61.3,25.1,30.28,SSW,213,0.0,6.0,25,0.00,,,0.00,Wunderground v.1.13,2013-03-29 17:40:00,
2013-03-29 13:50:00,60.2,25.1,30.28,South,181,1.0,1.0,26,0.00,,,0.00,Wunderground v.1.13,2013-03-29 17:50:00,
2013-03-29 13:55:00,60.2,24.2,30.28,South,181,0.0,6.0,25,0.00,,,0.00,Wunderground v.1.13,2013-03-29 17:55:00,
2013-03-29 14:00:00,59.9,22.0,30.27,ESE,110,1.0,6.0,23,0.00,,,0.00,Wunderground v.1.13,2013-03-29 18:00:00,
2013-03-29 14:05:00,59.0,23.2,30.27,ESE,117,1.0,6.0,25,0.00,,,0.00,Wunderground v.1.13,2013-03-29 18:05:00,
2013-03-29 14:10:00,58.7,24.8,30.27,SE,141,1.0,1.0,27,0.00,,,0.00,Wunderground v.1.13,2013-03-29 18:10:00,
2013-03-29 14:20:00,58.1,22.4,30.26,ESE,121,1.0,1.0,25,0.00,,,0.00,Wunderground v.1.13,2013-03-29 18:20:00,
2013-03-29 14:25:00,58.0,23.3,30.26,SE,124,1.0,1.0,26,0.00,,,0.00,Wunderground v.1.13,2013-03-29 18:25:00,
2013-03-29 14:30:00,58.7,24.8,30.26,SSE,161,0.0,6.0,27,0.00,,,0.00,Wunderground v.1.13,2013-03-29 18:30:00,
2013-03-29 14:35:00,59.8,23.9,30.26,SSE,152,0.0,6.0,25,0.00,,,0.00,Wunderground v.1.13,2013-03-29 18:35:00,
2013-03-29 14:40:00,60.2,24.2,30.26,SSE,147,0.0,6.0,25,0.00,,,0.00,Wunderground v.1.13,2013-03-29 18:40:00,
2013-03-29 14:45:00,60.5,22.5,30.25,SE,134,0.0,6.0,23,0.00,,,0.00,Wunderground v.1.13,2013-03-29 18:45:00,
2013-03-29 14:55:00,60.4,24.4,30.25,SSE,161,1.0,1.0,25,0.00,,,0.00,Wunderground v.1.13,2013-03-29 18:55:00,
2013-03-29 15:00:00,60.9,24.8,30.24,SE,140,1.0,6.0,25,0.00,,,0.00,Wunderground v.1.13,2013-03-29 19:00:00,
2013-03-29 15:05:00,60.7,22.6,30.24,SE,136,1.0,6.0,23,0.00,,,0.00,Wunderground v.1.13,2013-03-29 19:05:00,
2013-03-29 15:10:00,60.4,24.4,30.24,SSE,151,1.0,1.0,25,0.00,,,0.00,Wunderground v.1.13,2013-03-29 19:10:00,
2013-03-29 15:15:00,59.9,22.0,30.24,SE,130,1.0,1.0,23,0.00,,,0.00,Wunderground v.1.13,2013-03-29 19:15:00,
2013-03-29 15:25:00,59.8,21.9,30.24,ESE,123,0.0,6.0,23,0.00,,,0.00,Wunderground v.1.13,2013-03-29 19:25:00,
2013-03-29 15:30:00,59.8,24.8,30.23,SE,137,1.0,1.0,26,0.00,,,0.00,Wunderground v.1.13,2013-03-29 19:30:00,
2013-03-29 15:35:00,59.9,22.0,30.23,ESE,114,1.0,1.0,23,0.00,,,0.00,Wunderground v.1.13,2013-03-29 19:35:00,
2013-03-29 15:40:00,59.5,22.6,30.23,SE,141,1.0,1.0,24,0.00,,,0.00,Wunderground v.1.13,2013-03-29 19:40:00,
2013-03-29 15:45:00,59.3,21.5,30.23,SE,131,1.0,1.0,23,0.00,,,0.00,Wunderground v.1.13,2013-03-29 19:45:00,
2013-03-29 15:50:00,59.3,22.5,30.23,SE,130,0.0,6.0,24,0.00,,,0.00,Wunderground v.1.13,2013-03-29 19:50:00,
2013-03-29 16:00:00,59.9,23.9,30.22,South,171,0.0,6.0,25,0.00,,,0.00,Wunderground v.1.13,2013-03-29 20:00:00,
2013-03-29 16:05:00,60.2,24.2,30.22,South,176,0.0,6.0,25,0.00,,,0.00,Wunderground v.1.13,2013-03-29 20:05:00,
2013-03-29 16:10:00,60.5,23.5,30.22,SE,134,0.0,6.0,24,0.00,,,0.00,Wunderground v.1.13,2013-03-29 20:10:00,
2013-03-29 16:15:00,60.2,24.2,30.22,SE,133,0.0,6.0,25,0.00,,,0.00,Wunderground v.1.13,2013-03-29 20:15:00,
2013-03-29 16:20:00,60.1,23.1,30.22,SE,131,1.0,6.0,24,0.00,,,0.00,Wunderground v.1.13,2013-03-29 20:20:00,
2013-03-29 16:30:00,60.7,24.6,30.22,SW,215,0.0,6.0,25,0.00,,,0.00,Wunderground v.1.13,2013-03-29 20:30:00,
2013-03-29 16:35:00,60.7,24.6,30.22,ESE,120,1.0,1.0,25,0.00,,,0.00,Wunderground v.1.13,2013-03-29 20:35:00,
2013-03-29 16:40:00,59.9,23.9,30.22,SE,137,1.0,6.0,25,0.00,,,0.00,Wunderground v.1.13,2013-03-29 20:40:00,
2013-03-29 16:45:00,59.2,23.4,30.22,SE,143,1.0,6.0,25,0.00,,,0.00,Wunderground v.1.13,2013-03-29 20:45:00,
2013-03-29 16:50:00,58.4,23.6,30.22,SE,136,1.0,1.0,26,0.00,,,0.00,Wunderground v.1.13,2013-03-29 20:50:00,
2013-03-29 17:00:00,58.9,24.0,30.21,SSE,164,0.0,6.0,26,0.00,,,0.00,Wunderground v.1.13,2013-03-29 21:00:00,
2013-03-29 17:05:00,58.6,23.8,30.21,SE,145,1.0,6.0,26,0.00,,,0.00,Wunderground v.1.13,2013-03-29 21:05:00,
2013-03-29 17:10:00,58.7,24.8,30.21,SSE,164,1.0,1.0,27,0.00,,,0.00,Wunderground v.1.13,2013-03-29 21:10:00,
2013-03-29 17:15:00,58.9,24.9,30.21,SSE,160,0.0,6.0,27,0.00,,,0.00,Wunderground v.1.13,2013-03-29 21:15:00,
2013-03-29 17:20:00,58.9,24.0,30.21,SE,143,0.0,6.0,26,0.00,,,0.00,Wunderground v.1.13,2013-03-29 21:20:00,
2013-03-29 17:25:00,58.9,24.9,30.21,South,181,0.0,6.0,27,0.00,,,0.00,Wunderground v.1.13,2013-03-29 21:25:00,
2013-03-29 17:35:00,58.4,25.4,30.21,ESE,116,1.0,6.0,28,0.00,,,0.00,Wunderground v.1.13,2013-03-29 21:35:00,
2013-03-29 17:40:00,58.3,24.4,30.21,SE,134,1.0,1.0,27,0.00,,,0.00,Wunderground v.1.13,2013-03-29 21:40:00,
2013-03-29 17:45:00,58.1,25.1,30.20,SSE,167,1.0,1.0,28,0.00,,,0.00,Wunderground v.1.13,2013-03-29 21:45:00,
2013-03-29 17:50:00,58.4,24.5,30.20,SSE,147,0.0,6.0,27,0.00,,,0.00,Wunderground v.1.13,2013-03-29 21:50:00,
2013-03-29 17:55:00,58.9,24.9,30.20,SSW,198,0.0,6.0,27,0.00,,,0.00,Wunderground v.1.13,2013-03-29 21:55:00,
2013-03-29 18:00:00,59.2,26.1,30.20,SSW,195,0.0,6.0,28,0.00,,,0.00,Wunderground v.1.13,2013-03-29 22:00:00,
2013-03-29 18:05:00,59.2,25.2,30.20,SSW,195,0.0,6.0,27,0.00,,,0.00,Wunderground v.1.13,2013-03-29 22:05:00,
2013-03-29 18:10:00,59.0,25.9,30.20,SSW,192,0.0,6.0,28,0.00,,,0.00,Wunderground v.1.13,2013-03-29 22:10:00,
2013-03-29 18:15:00,58.7,25.6,30.20,South,175,0.0,6.0,28,0.00,,,0.00,Wunderground v.1.13,2013-03-29 22:15:00,
2013-03-29 18:20:00,58.4,24.5,30.20,South,175,0.0,6.0,27,0.00,,,0.00,Wunderground v.1.13,2013-03-29 22:20:00,
2013-03-29 18:25:00,58.1,25.1,30.20,South,175,0.0,6.0,28,0.00,,,0.00,Wunderground v.1.13,2013-03-29 22:25:00,
2013-03-29 18:35:00,57.6,23.8,30.20,SE,136,0.0,6.0,27,0.00,,,0.00,Wunderground v.1.13,2013-03-29 22:35:00,
2013-03-29 18:40:00,57.2,24.3,30.20,SE,131,0.0,6.0,28,0.00,,,0.00,Wunderground v.1.13,2013-03-29 22:40:00,
2013-03-29 18:45:00,56.9,24.1,30.20,SE,130,0.0,6.0,28,0.00,,,0.00,Wunderground v.1.13,2013-03-29 22:45:00,
2013-03-29 18:50:00,56.6,23.8,30.20,SE,128,0.0,6.0,28,0.00,,,0.00,Wunderground v.1.13,2013-03-29 22:50:00,
2013-03-29 18:55:00,56.5,23.7,30.20,SE,128,0.0,6.0,28,0.00,,,0.00,Wunderground v.1.13,2013-03-29 22:55:00,
2013-03-29 19:00:00,56.3,24.4,30.21,SE,145,0.0,6.0,29,0.00,,,0.00,Wunderground v.1.13,2013-03-29 23:00:00,
2013-03-29 19:10:00,56.0,24.2,30.21,SSE,148,0.0,6.0,29,0.00,,,0.00,Wunderground v.1.13,2013-03-29 23:10:00,
2013-03-29 19:15:00,55.9,24.1,30.21,ESE,121,1.0,6.0,29,0.00,,,0.00,Wunderground v.1.13,2013-03-29 23:15:00,
2013-03-29 19:20:00,55.6,23.8,30.21,SE,126,1.0,6.0,29,0.00,,,0.00,Wunderground v.1.13,2013-03-29 23:20:00,
2013-03-29 19:25:00,55.4,23.6,30.21,ESE,120,1.0,6.0,29,0.00,,,0.00,Wunderground v.1.13,2013-03-29 23:25:00,
2013-03-29 19:30:00,55.3,24.4,30.21,ESE,120,1.0,1.0,30,0.00,,,0.00,Wunderground v.1.13,2013-03-29 23:30:00,
2013-03-29 19:40:00,55.1,24.2,30.21,ESE,120,0.0,6.0,30,0.00,,,0.00,Wunderground v.1.13,2013-03-29 23:40:00,
2013-03-29 19:45:00,55.0,24.9,30.21,ESE,120,0.0,6.0,31,0.00,,,0.00,Wunderground v.1.13,2013-03-29 23:45:00,
2013-03-29 19:50:00,54.8,24.7,30.21,ESE,123,1.0,1.0,31,0.00,,,0.00,Wunderground v.1.13,2013-03-29 23:50:00,
2013-03-29 19:55:00,54.7,25.4,30.21,ESE,123,0.0,6.0,32,0.00,,,0.00,Wunderground v.1.13,2013-03-29 23:55:00,
2013-03-29 20:00:00,54.7,24.6,30.21,ESE,121,0.0,6.0,31,0.00,,,0.00,Wunderground v.1.13,2013-03-30 00:00:00,
2013-03-29 20:05:00,54.5,25.2,30.21,ESE,121,0.0,6.0,32,0.00,,,0.00,Wunderground v.1.13,2013-03-30 00:05:00,
2013-03-29 20:10:00,54.4,25.1,30.21,ESE,121,0.0,6.0,32,0.00,,,0.00,Wunderground v.1.13,2013-03-30 00:10:00,
2013-03-29 20:15:00,54.2,24.9,30.21,ESE,121,0.0,6.0,32,0.00,,,0.00,Wunderground v.1.13,2013-03-30 00:15:00,
2013-03-29 20:20:00,54.2,24.9,30.21,ESE,121,0.0,6.0,32,0.00,,,0.00,Wunderground v.1.13,2013-03-30 00:20:00,
2013-03-29 20:25:00,54.1,24.9,30.21,ESE,121,0.0,6.0,32,0.00,,,0.00,Wunderground v.1.13,2013-03-30 00:25:00,
2013-03-29 20:30:00,53.9,25.4,30.21,ESE,121,0.0,6.0,33,0.00,,,0.00,Wunderground v.1.13,2013-03-30 00:30:00,
2013-03-29 20:35:00,53.8,27.4,30.21,SSE,158,0.0,6.0,36,0.00,,,0.00,Wunderground v.1.13,2013-03-30 00:35:00,
2013-03-29 20:45:00,53.3,26.3,30.21,SSE,158,0.0,6.0,35,0.00,,,0.00,Wunderground v.1.13,2013-03-30 00:45:00,
2013-03-29 20:50:00,53.2,25.5,30.21,SSE,160,0.0,6.0,34,0.00,,,0.00,Wunderground v.1.13,2013-03-30 00:50:00,
2013-03-29 20:55:00,53.1,24.7,30.21,SSE,161,0.0,6.0,33,0.00,,,0.00,Wunderground v.1.13,2013-03-30 00:55:00,
2013-03-29 21:00:00,52.9,25.3,30.21,SSE,161,0.0,6.0,34,0.00,,,0.00,Wunderground v.1.13,2013-03-30 01:00:00,
2013-03-29 21:05:00,52.9,24.5,30.21,SSE,164,0.0,6.0,33,0.00,,,0.00,Wunderground v.1.13,2013-03-30 01:05:00,
2013-03-29 21:10:00,52.9,25.3,30.21,SSE,164,0.0,6.0,34,0.00,,,0.00,Wunderground v.1.13,2013-03-30 01:10:00,
2013-03-29 21:15:00,52.9,25.3,30.21,SSE,164,0.0,6.0,34,0.00,,,0.00,Wunderground v.1.13,2013-03-30 01:15:00,
2013-03-29 21:20:00,52.8,25.2,30.21,SSE,164,0.0,6.0,34,0.00,,,0.00,Wunderground v.1.13,2013-03-30 01:20:00,
2013-03-29 21:25:00,52.8,27.9,30.21,SSE,164,0.0,6.0,38,0.00,,,0.00,Wunderground v.1.13,2013-03-30 01:25:00,
2013-03-29 21:30:00,52.6,27.7,30.22,SSE,164,0.0,6.0,38,0.00,,,0.00,Wunderground v.1.13,2013-03-30 01:30:00,
2013-03-29 21:35:00,52.3,27.4,30.22,SSE,164,0.0,6.0,38,0.00,,,0.00,Wunderground v.1.13,2013-03-30 01:35:00,
2013-03-29 21:40:00,52.0,27.1,30.22,SSE,164,0.0,6.0,38,0.00,,,0.00,Wunderground v.1.13,2013-03-30 01:40:00,
2013-03-29 21:50:00,51.6,28.6,30.22,SSE,164,0.0,6.0,41,0.00,,,0.00,Wunderground v.1.13,2013-03-30 01:50:00,
2013-03-29 21:55:00,51.3,27.8,30.22,SSE,164,0.0,6.0,40,0.00,,,0.00,Wunderground v.1.13,2013-03-30 01:55:00,
2013-03-29 22:05:00,50.7,30.1,30.22,SSE,164,0.0,6.0,45,0.00,,,0.00,Wunderground v.1.13,2013-03-30 02:05:00,
2013-03-29 22:10:00,50.5,29.9,30.22,SSE,164,0.0,6.0,45,0.00,,,0.00,Wunderground v.1.13,2013-03-30 02:10:00,
2013-03-29 22:20:00,49.9,31.0,30.23,SSE,164,0.0,6.0,48,0.00,,,0.00,Wunderground v.1.13,2013-03-30 02:20:00,
2013-03-29 22:25:00,49.6,30.2,30.23,SSE,164,0.0,6.0,47,0.00,,,0.00,Wunderground v.1.13,2013-03-30 02:25:00,
2013-03-29 22:30:00,49.5,28.5,30.23,SSE,164,0.0,6.0,44,0.00,,,0.00,Wunderground v.1.13,2013-03-30 02:30:00,
2013-03-29 22:35:00,49.4,27.8,30.23,SSE,164,0.0,6.0,43,0.00,,,0.00,Wunderground v.1.13,2013-03-30 02:35:00,
2013-03-29 22:40:00,49.4,27.8,30.23,SSE,164,0.0,6.0,43,0.00,,,0.00,Wunderground v.1.13,2013-03-30 02:40:00,
2013-03-29 22:45:00,49.5,28.5,30.23,SSE,164,0.0,6.0,44,0.00,,,0.00,Wunderground v.1.13,2013-03-30 02:45:00,
2013-03-29 22:55:00,49.6,29.6,30.23,SSE,165,0.0,6.0,46,0.00,,,0.00,Wunderground v.1.13,2013-03-30 02:55:00,
2013-03-29 23:00:00,49.5,29.0,30.23,SSE,165,0.0,6.0,45,0.00,,,0.00,Wunderground v.1.13,2013-03-30 03:00:00,
2013-03-29 23:05:00,49.5,27.9,30.23,SSE,165,0.0,6.0,43,0.00,,,0.00,Wunderground v.1.13,2013-03-30 03:05:00,
2013-03-29 23:10:00,49.4,27.8,30.23,SSE,165,0.0,6.0,43,0.00,,,0.00,Wunderground v.1.13,2013-03-30 03:10:00,
2013-03-29 23:15:00,49.5,27.9,30.23,SSE,165,0.0,6.0,43,0.00,,,0.00,Wunderground v.1.13,2013-03-30 03:15:00,
2013-03-29 23:20:00,49.5,27.9,30.23,SSE,167,0.0,6.0,43,0.00,,,0.00,Wunderground v.1.13,2013-03-30 03:20:00,
2013-03-29 23:25:00,49.4,29.5,30.23,SSE,165,0.0,6.0,46,0.00,,,0.00,Wunderground v.1.13,2013-03-30 03:25:00,
2013-03-29 23:30:00,49.4,29.5,30.23,SSE,167,0.0,6.0,46,0.00,,,0.00,Wunderground v.1.13,2013-03-30 03:30:00,
2013-03-29 23:35:00,49.1,29.7,30.23,SSE,167,0.0,6.0,47,0.00,,,0.00,Wunderground v.1.13,2013-03-30 03:35:00,
2013-03-29 23:40:00,48.8,28.9,30.23,SSE,167,0.0,6.0,46,0.00,,,0.00,Wunderground v.1.13,2013-03-30 03:40:00,
2013-03-29 23:45:00,48.6,28.7,30.23,SSE,167,0.0,6.0,46,0.00,,,0.00,Wunderground v.1.13,2013-03-30 03:45:00,
2013-03-29 23:55:00,48.2,28.9,30.23,SSE,167,0.0,6.0,47,0.00,,,0.00,Wunderground v.1.13,2013-03-30 03:55:00,